createdAt,value
2019-05-29T00:02:15.402Z,8.30
2019-05-29T00:04:45.218Z,8.20
2019-05-29T00:07:15.337Z,8.20
2019-05-29T00:09:45.151Z,8.20
2019-05-29T00:12:19.297Z,8.20
2019-05-29T00:14:46.828Z,8.30
2019-05-29T00:17:16.957Z,8.30
2019-05-29T00:19:46.754Z,8.20
2019-05-29T00:22:16.880Z,8.10
2019-05-29T00:24:47.005Z,8.00
2019-05-29T00:27:17.853Z,8.00
2019-05-29T00:29:47.875Z,8.00
2019-05-29T00:32:17.980Z,7.90
2019-05-29T00:34:48.098Z,7.80
2019-05-29T00:37:17.988Z,7.80
2019-05-29T00:39:47.788Z,7.80
2019-05-29T00:42:17.662Z,7.80
2019-05-29T00:44:47.509Z,7.70
2019-05-29T00:47:17.784Z,7.60
2019-05-29T00:49:48.938Z,7.50
2019-05-29T00:52:19.096Z,7.50
2019-05-29T00:54:49.218Z,7.50
2019-05-29T00:57:19.107Z,7.50
2019-05-29T00:59:49.245Z,7.40
2019-05-29T01:02:19.806Z,7.40
2019-05-29T01:04:50.100Z,7.30
2019-05-29T01:07:20.502Z,7.20
2019-05-29T01:09:50.519Z,7.10
2019-05-29T01:12:21.300Z,7.00
2019-05-29T01:14:51.326Z,7.00
2019-05-29T01:17:21.870Z,6.90
2019-05-29T01:19:52.151Z,6.80
2019-05-29T01:22:22.443Z,6.80
2019-05-29T01:24:52.396Z,6.70
2019-05-29T01:27:23.137Z,6.70
2019-05-29T01:29:53.123Z,6.70
2019-05-29T01:32:23.770Z,6.70
2019-05-29T01:34:54.096Z,6.60
2019-05-29T01:37:24.379Z,6.60
2019-05-29T01:39:55.474Z,6.60
2019-05-29T01:42:25.298Z,6.50
2019-05-29T01:45:07.130Z,6.50
2019-05-29T01:47:28.002Z,6.40
2019-05-29T01:49:58.012Z,6.40
2019-05-29T01:52:28.147Z,6.40
2019-05-29T01:54:57.993Z,6.40
2019-05-29T01:57:28.033Z,6.40
2019-05-29T01:59:58.271Z,6.40
2019-05-29T02:02:28.316Z,6.30
2019-05-29T02:04:58.140Z,6.30
2019-05-29T02:07:28.303Z,6.30
2019-05-29T02:09:58.547Z,6.20
2019-05-29T02:12:28.362Z,6.10
2019-05-29T02:14:58.173Z,6.00
2019-05-29T02:17:28.293Z,6.00
2019-05-29T02:19:58.094Z,6.00
2019-05-29T02:22:28.218Z,6.00
2019-05-29T02:24:58.030Z,6.00
2019-05-29T02:27:27.834Z,6.00
2019-05-29T02:29:57.647Z,6.00
2019-05-29T02:32:27.929Z,6.00
2019-05-29T02:34:57.844Z,6.00
2019-05-29T02:37:28.897Z,6.00
2019-05-29T02:39:58.901Z,6.00
2019-05-29T02:42:29.136Z,6.00
2019-05-29T02:45:00.318Z,6.00
2019-05-29T02:47:30.307Z,5.90
2019-05-29T02:50:00.244Z,5.90
2019-05-29T02:52:30.767Z,5.90
2019-05-29T02:55:00.836Z,5.80
2019-05-29T02:57:31.626Z,5.80
2019-05-29T03:00:01.504Z,5.80
2019-05-29T03:02:32.081Z,5.70
2019-05-29T03:05:04.109Z,5.60
2019-05-29T03:07:34.478Z,5.60
2019-05-29T03:10:06.782Z,5.70
2019-05-29T03:12:36.944Z,5.60
2019-05-29T03:15:07.614Z,5.50
2019-05-29T03:17:37.727Z,5.40
2019-05-29T03:20:08.564Z,5.40
2019-05-29T03:22:38.390Z,5.40
2019-05-29T03:25:08.336Z,5.50
2019-05-29T03:27:38.553Z,5.50
2019-05-29T03:30:08.722Z,5.50
2019-05-29T03:32:46.697Z,5.60
2019-05-29T03:35:10.443Z,5.60
2019-05-29T03:37:40.576Z,5.60
2019-05-29T03:40:10.530Z,5.60
2019-05-29T03:42:40.335Z,5.50
2019-05-29T03:45:10.235Z,5.50
2019-05-29T03:47:40.020Z,5.50
2019-05-29T03:50:10.545Z,5.40
2019-05-29T03:52:40.393Z,5.40
2019-05-29T03:55:10.826Z,5.40
2019-05-29T03:57:40.984Z,5.40
2019-05-29T04:00:13.068Z,5.70
2019-05-29T04:02:42.936Z,5.70
2019-05-29T04:05:12.889Z,5.90
2019-05-29T04:07:42.696Z,5.90
2019-05-29T04:10:12.932Z,5.90
2019-05-29T04:12:43.342Z,6.00
2019-05-29T04:15:13.979Z,6.20
2019-05-29T04:17:44.503Z,6.70
2019-05-29T04:20:14.643Z,7.00
2019-05-29T04:22:45.563Z,7.90
2019-05-29T04:25:15.789Z,9.80
2019-05-29T04:27:48.737Z,11.20
2019-05-29T04:30:18.984Z,12.50
2019-05-29T04:32:49.755Z,13.50
2019-05-29T04:35:20.109Z,14.50
2019-05-29T04:37:49.946Z,14.70
2019-05-29T04:40:19.762Z,15.50
2019-05-29T04:42:49.555Z,15.30
2019-05-29T04:45:19.712Z,16.40
2019-05-29T04:47:49.542Z,17.20
2019-05-29T04:50:19.744Z,17.70
2019-05-29T04:52:49.867Z,17.90
2019-05-29T04:55:19.991Z,18.70
2019-05-29T04:57:51.025Z,19.30
2019-05-29T05:00:21.085Z,19.40
2019-05-29T05:02:50.964Z,19.30
2019-05-29T05:05:21.689Z,19.20
2019-05-29T05:07:51.511Z,19.60
2019-05-29T05:10:36.100Z,19.80
2019-05-29T05:13:06.858Z,20.00
2019-05-29T05:15:37.993Z,20.00
2019-05-29T05:18:09.912Z,20.50
2019-05-29T05:20:40.429Z,20.90
2019-05-29T05:23:10.659Z,20.50
2019-05-29T05:25:41.027Z,21.30
2019-05-29T05:28:11.407Z,21.70
2019-05-29T05:30:41.236Z,21.70
2019-05-29T05:33:11.925Z,22.10
2019-05-29T05:35:41.770Z,23.20
2019-05-29T05:38:11.885Z,23.50
2019-05-29T05:40:43.162Z,23.70
2019-05-29T05:43:23.757Z,23.40
2019-05-29T05:45:45.120Z,23.30
2019-05-29T05:48:15.340Z,23.20
2019-05-29T05:50:45.454Z,23.00
2019-05-29T05:53:15.270Z,23.60
2019-05-29T05:55:46.176Z,23.40
2019-05-29T05:58:16.328Z,23.90
2019-05-29T06:00:46.163Z,23.80
2019-05-29T06:03:15.968Z,23.90
2019-05-29T06:05:45.790Z,23.90
2019-05-29T06:08:15.750Z,24.40
2019-05-29T06:10:45.915Z,25.20
2019-05-29T06:13:16.027Z,24.70
2019-05-29T06:15:45.880Z,25.00
2019-05-29T06:18:21.572Z,24.90
2019-05-29T06:20:47.283Z,25.40
2019-05-29T06:23:17.362Z,25.20
2019-05-29T06:25:48.792Z,25.60
2019-05-29T06:28:18.609Z,26.30
2019-05-29T06:30:48.427Z,25.50
2019-05-29T06:33:18.477Z,26.60
2019-05-29T06:35:48.291Z,26.80
2019-05-29T06:38:18.096Z,26.60
2019-05-29T06:40:48.053Z,24.90
2019-05-29T06:43:20.968Z,25.90
2019-05-29T06:45:51.377Z,25.40
2019-05-29T06:48:58.623Z,26.70
2019-05-29T06:51:00.941Z,26.60
2019-05-29T06:53:31.363Z,27.10
2019-05-29T06:56:02.294Z,26.60
2019-05-29T06:58:32.794Z,27.90
2019-05-29T07:01:02.595Z,27.10
2019-05-29T07:03:32.764Z,27.60
2019-05-29T07:06:02.634Z,28.50
2019-05-29T07:08:38.839Z,27.90
2019-05-29T07:11:04.420Z,26.80
2019-05-29T07:13:35.424Z,27.80
2019-05-29T07:16:06.042Z,27.00
2019-05-29T07:18:36.528Z,28.30
2019-05-29T07:21:10.785Z,28.60
2019-05-29T07:23:41.240Z,29.70
2019-05-29T07:26:12.552Z,30.80
2019-05-29T07:29:03.038Z,28.90
2019-05-29T07:31:13.874Z,29.20
2019-05-29T07:33:43.687Z,29.50
2019-05-29T07:36:13.856Z,29.90
2019-05-29T07:38:53.032Z,29.90
2019-05-29T07:41:15.518Z,29.50
2019-05-29T07:43:45.942Z,29.20
2019-05-29T07:46:16.277Z,27.90
2019-05-29T07:48:48.550Z,28.90
2019-05-29T07:51:17.914Z,29.00
2019-05-29T07:53:48.801Z,28.50
2019-05-29T07:56:22.586Z,29.80
2019-05-29T07:59:01.511Z,30.60
2019-05-29T08:01:23.456Z,29.50
2019-05-29T08:03:53.260Z,29.30
2019-05-29T08:06:23.383Z,27.90
2019-05-29T08:08:53.193Z,28.30
2019-05-29T08:11:23.018Z,30.20
2019-05-29T08:13:52.818Z,30.00
2019-05-29T08:16:22.628Z,29.80
2019-05-29T08:18:53.098Z,28.50
2019-05-29T08:21:23.397Z,29.70
2019-05-29T08:23:53.604Z,29.00
2019-05-29T08:26:23.725Z,28.20
2019-05-29T08:28:53.545Z,29.10
2019-05-29T08:31:23.426Z,29.00
2019-05-29T08:33:53.571Z,28.70
2019-05-29T08:36:23.431Z,29.30
2019-05-29T08:38:53.511Z,29.70
2019-05-29T08:41:23.626Z,29.90
2019-05-29T08:43:53.754Z,28.90
2019-05-29T08:46:23.583Z,28.90
2019-05-29T08:48:53.670Z,29.70
2019-05-29T08:51:23.472Z,29.70
2019-05-29T08:53:54.709Z,28.80
2019-05-29T08:56:24.798Z,28.60
2019-05-29T08:58:54.984Z,27.60
2019-05-29T09:01:25.107Z,27.80
2019-05-29T09:03:54.995Z,28.30
2019-05-29T09:06:24.785Z,26.30
2019-05-29T09:08:55.077Z,26.10
2019-05-29T09:11:25.113Z,26.50
2019-05-29T09:13:55.182Z,26.30
2019-05-29T09:16:26.065Z,27.50
2019-05-29T09:18:56.151Z,27.90
2019-05-29T09:21:27.283Z,29.20
2019-05-29T09:23:58.928Z,27.50
2019-05-29T09:26:28.623Z,26.60
2019-05-29T09:28:58.877Z,26.70
2019-05-29T09:31:28.879Z,27.40
2019-05-29T09:33:58.686Z,27.30
2019-05-29T09:36:28.499Z,27.00
2019-05-29T09:38:58.362Z,28.30
2019-05-29T09:41:28.561Z,26.20
2019-05-29T09:44:00.224Z,26.90
2019-05-29T09:46:29.895Z,26.70
2019-05-29T09:49:01.637Z,26.30
2019-05-29T09:51:31.230Z,26.10
2019-05-29T09:54:01.535Z,26.70
2019-05-29T09:56:32.848Z,26.40
2019-05-29T09:59:03.883Z,26.80
2019-05-29T10:01:33.867Z,27.30
2019-05-29T10:04:06.164Z,27.10
2019-05-29T10:06:36.268Z,27.20
2019-05-29T10:09:08.677Z,28.10
2019-05-29T10:11:39.023Z,28.30
2019-05-29T10:14:08.866Z,27.40
2019-05-29T10:16:38.668Z,26.70
2019-05-29T10:19:08.759Z,25.00
2019-05-29T10:21:40.998Z,25.60
2019-05-29T10:24:10.204Z,26.00
2019-05-29T10:26:40.068Z,25.70
2019-05-29T10:29:10.174Z,24.50
2019-05-29T10:31:40.198Z,24.80
2019-05-29T10:34:10.022Z,24.80
2019-05-29T10:36:40.164Z,22.80
2019-05-29T10:39:12.812Z,22.80
2019-05-29T10:41:42.605Z,22.60
2019-05-29T10:44:13.182Z,22.10
2019-05-29T10:46:47.372Z,22.10
2019-05-29T10:49:14.913Z,22.10
2019-05-29T10:52:00.447Z,22.00
2019-05-29T10:54:16.854Z,21.80
2019-05-29T10:56:48.648Z,22.00
2019-05-29T10:59:18.947Z,21.80
2019-05-29T11:01:49.221Z,21.40
2019-05-29T11:04:19.191Z,21.90
2019-05-29T11:06:50.184Z,22.00
2019-05-29T11:09:20.146Z,22.20
2019-05-29T11:11:50.687Z,21.20
2019-05-29T11:14:21.018Z,21.10
2019-05-29T11:16:51.136Z,20.90
2019-05-29T11:19:21.361Z,20.70
2019-05-29T11:21:51.745Z,20.80
2019-05-29T11:24:22.039Z,20.80
2019-05-29T11:26:52.578Z,20.90
2019-05-29T11:29:22.860Z,20.50
2019-05-29T11:31:53.480Z,20.50
2019-05-29T11:34:24.612Z,20.80
2019-05-29T11:36:54.404Z,20.90
2019-05-29T11:39:24.291Z,20.90
2019-05-29T11:41:54.742Z,20.90
2019-05-29T11:44:25.866Z,20.40
2019-05-29T11:46:56.081Z,20.00
2019-05-29T11:49:26.389Z,19.80
2019-05-29T11:52:18.723Z,19.90
2019-05-29T11:54:27.942Z,20.10
2019-05-29T11:56:59.037Z,20.30
2019-05-29T11:59:29.065Z,20.10
2019-05-29T12:02:00.610Z,20.00
2019-05-29T12:04:31.811Z,20.00
2019-05-29T12:07:01.669Z,20.00
2019-05-29T12:09:33.518Z,19.90
2019-05-29T12:12:03.401Z,20.30
2019-05-29T12:14:33.210Z,20.30
2019-05-29T12:17:03.116Z,20.20
2019-05-29T12:19:33.217Z,20.50
2019-05-29T12:22:03.158Z,20.40
2019-05-29T12:24:33.288Z,20.20
2019-05-29T12:27:03.163Z,19.80
2019-05-29T12:29:33.239Z,19.70
2019-05-29T12:32:08.175Z,19.60
2019-05-29T12:34:35.200Z,19.50
2019-05-29T12:37:06.115Z,19.30
2019-05-29T12:39:36.261Z,19.50
2019-05-29T12:42:06.166Z,19.60
2019-05-29T12:44:36.003Z,19.80
2019-05-29T12:47:05.913Z,19.60
2019-05-29T12:49:35.769Z,19.40
2019-05-29T12:52:24.995Z,19.60
2019-05-29T12:54:55.879Z,19.50
2019-05-29T12:57:26.291Z,19.60
2019-05-29T12:59:56.423Z,19.70
2019-05-29T13:02:26.647Z,19.70
2019-05-29T13:05:08.372Z,19.50
2019-05-29T13:07:27.993Z,19.70
2019-05-29T13:09:58.922Z,20.00
2019-05-29T13:12:29.020Z,19.70
2019-05-29T13:14:59.190Z,19.80
2019-05-29T13:17:29.412Z,20.10
2019-05-29T13:20:08.215Z,20.20
2019-05-29T13:22:32.125Z,19.60
2019-05-29T13:25:03.353Z,19.60
2019-05-29T13:27:33.871Z,19.80
2019-05-29T13:30:09.291Z,20.00
2019-05-29T13:32:39.440Z,19.80
2019-05-29T13:35:11.317Z,19.90
2019-05-29T13:37:41.138Z,19.70
2019-05-29T13:40:11.861Z,20.00
2019-05-29T13:42:41.767Z,20.00
2019-05-29T13:45:17.729Z,19.80
2019-05-29T13:47:43.708Z,19.70
2019-05-29T13:50:14.685Z,19.90
2019-05-29T13:52:44.502Z,20.20
2019-05-29T13:55:15.311Z,20.40
2019-05-29T13:57:45.120Z,20.10
2019-05-29T14:00:32.469Z,20.00
2019-05-29T14:02:49.184Z,20.00
2019-05-29T14:05:20.544Z,20.20
2019-05-29T14:07:50.743Z,20.40
2019-05-29T14:10:20.891Z,20.60
2019-05-29T14:12:50.850Z,20.50
2019-05-29T14:15:21.314Z,19.90
2019-05-29T14:17:51.131Z,19.70
2019-05-29T14:20:21.320Z,19.90
2019-05-29T14:22:51.119Z,19.80
2019-05-29T14:25:22.923Z,19.80
2019-05-29T14:27:52.756Z,19.90
2019-05-29T14:30:23.283Z,20.10
2019-05-29T14:32:53.117Z,19.90
2019-05-29T14:35:23.193Z,20.10
2019-05-29T14:37:53.031Z,20.00
2019-05-29T14:40:22.965Z,20.10
2019-05-29T14:42:52.804Z,20.20
2019-05-29T14:45:22.959Z,20.40
2019-05-29T14:47:52.855Z,20.50
2019-05-29T14:50:23.051Z,20.20
2019-05-29T14:52:52.853Z,20.10
2019-05-29T14:55:23.139Z,20.30
2019-05-29T14:57:52.977Z,20.10
2019-05-29T15:00:25.781Z,20.10
2019-05-29T15:02:55.449Z,20.10
2019-05-29T15:05:25.667Z,19.80
2019-05-29T15:07:55.496Z,19.60
2019-05-29T15:10:27.763Z,19.60
2019-05-29T15:12:58.206Z,19.70
2019-05-29T15:15:28.350Z,19.70
2019-05-29T15:17:58.161Z,19.60
2019-05-29T15:20:28.424Z,19.60
2019-05-29T15:22:58.545Z,19.60
2019-05-29T15:25:28.767Z,19.80
2019-05-29T15:27:58.901Z,19.70
2019-05-29T15:30:29.014Z,19.70
2019-05-29T15:32:59.672Z,19.80
2019-05-29T15:35:29.875Z,19.70
2019-05-29T15:37:59.701Z,19.60
2019-05-29T15:40:29.909Z,19.60
2019-05-29T15:43:00.141Z,19.20
2019-05-29T15:45:29.957Z,19.20
2019-05-29T15:47:59.755Z,19.30
2019-05-29T15:50:29.869Z,19.10
2019-05-29T15:52:59.684Z,19.30
2019-05-29T15:55:34.687Z,19.30
2019-05-29T15:58:01.465Z,19.40
2019-05-29T16:00:31.355Z,19.30
2019-05-29T16:03:01.284Z,19.30
2019-05-29T16:05:31.404Z,19.30
2019-05-29T16:08:01.544Z,19.30
2019-05-29T16:10:31.872Z,19.30
2019-05-29T16:13:02.087Z,19.30
2019-05-29T16:15:31.903Z,19.30
2019-05-29T16:18:01.709Z,19.30
2019-05-29T16:20:31.827Z,19.30
2019-05-29T16:23:02.036Z,19.40
2019-05-29T16:25:40.096Z,19.30
2019-05-29T16:28:03.515Z,19.10
2019-05-29T16:30:33.639Z,19.00
2019-05-29T16:33:03.580Z,19.10
2019-05-29T16:35:37.090Z,19.10
2019-05-29T16:38:05.530Z,19.20
2019-05-29T16:40:35.379Z,19.20
2019-05-29T16:43:05.340Z,19.10
2019-05-29T16:45:35.417Z,19.20
2019-05-29T16:48:05.798Z,19.20
2019-05-29T16:50:35.922Z,19.10
2019-05-29T16:53:06.146Z,19.20
2019-05-29T16:55:35.960Z,19.10
2019-05-29T16:58:06.085Z,19.10
2019-05-29T17:00:36.296Z,19.20
2019-05-29T17:03:06.415Z,19.10
2019-05-29T17:05:36.535Z,19.00
2019-05-29T17:08:06.761Z,19.00
2019-05-29T17:10:37.415Z,18.90
2019-05-29T17:13:08.058Z,18.80
2019-05-29T17:15:38.151Z,18.90
2019-05-29T17:18:07.986Z,18.90
2019-05-29T17:20:45.542Z,18.80
2019-05-29T17:23:16.927Z,18.90
2019-05-29T17:25:46.981Z,18.90
2019-05-29T17:28:20.509Z,18.80
2019-05-29T17:30:48.395Z,18.70
2019-05-29T17:33:19.027Z,18.70
2019-05-29T17:35:49.032Z,18.70
2019-05-29T17:38:19.072Z,18.70
2019-05-29T17:40:50.433Z,18.70
2019-05-29T17:43:23.511Z,18.70
2019-05-29T17:45:51.855Z,18.60
2019-05-29T17:48:23.887Z,18.60
2019-05-29T17:50:53.855Z,18.60
2019-05-29T17:53:26.130Z,18.60
2019-05-29T17:55:57.473Z,18.60
2019-05-29T17:58:27.423Z,18.50
2019-05-29T18:00:57.376Z,18.40
2019-05-29T18:03:27.264Z,18.40
2019-05-29T18:05:57.113Z,18.40
2019-05-29T18:08:27.120Z,18.30
2019-05-29T18:10:56.915Z,18.30
2019-05-29T18:13:27.441Z,18.30
2019-05-29T18:15:58.393Z,18.30
2019-05-29T18:18:28.241Z,18.20
2019-05-29T18:20:58.368Z,18.20
2019-05-29T18:23:28.491Z,18.20
2019-05-29T18:25:58.715Z,18.10
2019-05-29T18:28:28.825Z,18.00
2019-05-29T18:30:58.643Z,17.90
2019-05-29T18:33:28.991Z,17.90
2019-05-29T18:35:58.851Z,17.80
2019-05-29T18:38:28.801Z,17.70
2019-05-29T18:40:58.956Z,17.70
2019-05-29T18:43:28.878Z,17.60
2019-05-29T18:45:59.061Z,17.50
2019-05-29T18:48:29.470Z,17.50
2019-05-29T18:50:59.476Z,17.40
2019-05-29T18:53:29.676Z,17.40
2019-05-29T18:55:59.889Z,17.30
2019-05-29T18:58:30.690Z,17.10
2019-05-29T19:01:00.836Z,17.00
2019-05-29T19:03:32.654Z,16.90
2019-05-29T19:06:02.306Z,16.80
2019-05-29T19:08:32.429Z,16.60
2019-05-29T19:11:02.526Z,16.50
2019-05-29T19:13:32.350Z,16.50
2019-05-29T19:16:02.619Z,16.40
2019-05-29T19:18:32.631Z,16.30
2019-05-29T19:21:02.456Z,16.10
2019-05-29T19:23:32.969Z,16.00
2019-05-29T19:26:03.084Z,16.00
2019-05-29T19:28:33.004Z,16.00
2019-05-29T19:31:02.968Z,16.00
2019-05-29T19:33:33.669Z,15.90
2019-05-29T19:36:03.957Z,15.90
2019-05-29T19:38:34.188Z,15.90
2019-05-29T19:41:05.545Z,15.80
2019-05-29T19:43:35.472Z,15.70
2019-05-29T19:46:05.451Z,15.70
2019-05-29T19:48:35.607Z,15.60
2019-05-29T19:51:05.641Z,15.50
2019-05-29T19:53:35.748Z,15.40
2019-05-29T19:56:06.979Z,15.40
2019-05-29T19:58:36.937Z,15.30
2019-05-29T20:01:06.986Z,15.20
2019-05-29T20:03:36.984Z,15.20
2019-05-29T20:06:07.009Z,15.20
2019-05-29T20:08:39.467Z,15.20
2019-05-29T20:11:09.012Z,15.20
2019-05-29T20:13:38.967Z,15.20
2019-05-29T20:16:08.851Z,15.10
2019-05-29T20:18:38.752Z,15.00
2019-05-29T20:21:08.722Z,15.00
2019-05-29T20:23:38.888Z,14.90
2019-05-29T20:26:08.820Z,15.00
2019-05-29T20:28:38.954Z,15.10
2019-05-29T20:31:11.902Z,15.00
2019-05-29T20:33:40.298Z,14.90
2019-05-29T20:36:10.119Z,15.00
2019-05-29T20:38:39.952Z,15.00
2019-05-29T20:41:10.069Z,14.90
2019-05-29T20:43:39.950Z,14.90
2019-05-29T20:46:11.096Z,14.90
2019-05-29T20:48:41.154Z,14.90
2019-05-29T20:51:10.984Z,15.00
2019-05-29T20:53:41.817Z,15.00
2019-05-29T20:56:11.955Z,15.00
2019-05-29T20:58:42.042Z,15.10
2019-05-29T21:01:11.968Z,15.10
2019-05-29T21:03:43.000Z,15.10
2019-05-29T21:06:12.825Z,15.10
2019-05-29T21:08:43.336Z,15.10
2019-05-29T21:11:13.516Z,15.10
2019-05-29T21:13:43.674Z,15.00
2019-05-29T21:16:13.960Z,15.00
2019-05-29T21:18:44.748Z,14.90
2019-05-29T21:21:15.944Z,14.90
2019-05-29T21:23:45.754Z,14.80
2019-05-29T21:26:15.827Z,14.80
2019-05-29T21:28:50.380Z,14.60
2019-05-29T21:31:17.727Z,14.60
2019-05-29T21:33:49.375Z,14.60
2019-05-29T21:36:19.367Z,14.50
2019-05-29T21:38:49.176Z,14.40
2019-05-29T21:41:18.980Z,14.40
2019-05-29T21:43:49.047Z,14.40
2019-05-29T21:46:19.124Z,14.40
2019-05-29T21:48:48.937Z,14.30
2019-05-29T21:51:18.990Z,14.20
2019-05-29T21:53:48.796Z,14.20
2019-05-29T21:56:18.855Z,14.20
2019-05-29T21:59:02.623Z,14.20
2019-05-29T22:01:20.712Z,14.30
2019-05-29T22:03:51.137Z,14.30
2019-05-29T22:06:21.764Z,14.30
2019-05-29T22:08:51.928Z,14.20
2019-05-29T22:11:21.833Z,14.30
2019-05-29T22:13:52.627Z,14.30
2019-05-29T22:16:22.445Z,14.40
2019-05-29T22:18:52.817Z,14.50
2019-05-29T22:21:22.984Z,14.50
2019-05-29T22:23:53.098Z,14.60
2019-05-29T22:26:23.192Z,14.70
2019-05-29T22:28:53.267Z,14.70
2019-05-29T22:31:23.071Z,14.70
2019-05-29T22:33:53.392Z,14.80
2019-05-29T22:36:23.324Z,14.80
2019-05-29T22:38:53.454Z,14.90
2019-05-29T22:41:23.424Z,14.90
2019-05-29T22:43:53.447Z,14.90
2019-05-29T22:46:23.333Z,14.90
2019-05-29T22:48:53.713Z,14.80
2019-05-29T22:51:23.599Z,14.80
2019-05-29T22:53:54.000Z,14.90
2019-05-29T22:56:23.857Z,14.90
2019-05-29T22:58:53.976Z,14.90
2019-05-29T23:01:24.119Z,15.00
2019-05-29T23:03:54.258Z,15.00
2019-05-29T23:06:24.059Z,15.00
2019-05-29T23:08:54.225Z,15.00
2019-05-29T23:11:24.336Z,15.00
2019-05-29T23:13:54.235Z,15.00
2019-05-29T23:16:24.035Z,14.90
2019-05-29T23:18:56.401Z,14.90
2019-05-29T23:21:26.539Z,14.80
2019-05-29T23:23:57.515Z,14.80
2019-05-29T23:26:27.636Z,14.70
2019-05-29T23:28:57.446Z,14.70
2019-05-29T23:31:27.502Z,14.70
2019-05-29T23:33:57.311Z,14.70
2019-05-29T23:36:27.179Z,14.70
2019-05-29T23:38:57.211Z,14.70
2019-05-29T23:41:28.043Z,14.70
2019-05-29T23:43:57.836Z,14.70
2019-05-29T23:46:27.876Z,14.70
2019-05-29T23:48:57.941Z,14.70
2019-05-29T23:51:27.982Z,14.70
2019-05-29T23:53:57.786Z,14.70
2019-05-29T23:56:27.852Z,14.70
2019-05-29T23:58:57.820Z,14.70
